Time;durP1;ratioP1;P1;durP2;ratioP2;P2;SDS_P1;SDS_P2;PMS_P1;PMS_P2;Temp;Humidity;BMP_temperature;BMP_pressure;BME280_temperature;BME280_humidity;BME280_pressure;Samples;Min_cycle;Max_cycle;Signal;HPM_P1;HPM_P2
2023/12/06 00:01:04;;;;;;;1.80;0.98;;;2.70;99.90;;;;;;4952071;28;20057;-65
2023/12/06 00:03:29;;;;;;;1.52;0.73;;;2.80;99.90;;;;;;4970412;28;20034;-64
2023/12/06 00:05:55;;;;;;;2.10;0.88;;;2.80;99.90;;;;;;4969883;28;20038;-65
2023/12/06 00:08:21;;;;;;;1.63;0.80;;;2.80;99.90;;;;;;4969836;28;20042;-64
2023/12/06 00:10:47;;;;;;;2.55;1.00;;;2.80;99.90;;;;;;4970031;28;20034;-66
2023/12/06 00:13:13;;;;;;;2.55;0.75;;;2.80;99.90;;;;;;4969855;28;20105;-65
2023/12/06 00:15:39;;;;;;;2.22;0.95;;;2.80;99.90;;;;;;4969879;28;20070;-64
2023/12/06 00:18:05;;;;;;;1.77;0.75;;;2.80;99.90;;;;;;4969164;28;20063;-65
2023/12/06 00:20:30;;;;;;;1.95;0.88;;;2.80;99.90;;;;;;4969840;28;20042;-64
2023/12/06 00:22:56;;;;;;;1.52;0.60;;;2.80;99.90;;;;;;4969103;28;20042;-64
2023/12/06 00:25:22;;;;;;;2.75;1.20;;;2.80;99.90;;;;;;4968898;28;20043;-65
2023/12/06 00:27:48;;;;;;;2.83;1.00;;;2.80;99.90;;;;;;4969442;28;20038;-66
2023/12/06 00:30:13;;;;;;;2.92;1.00;;;2.80;99.90;;;;;;4968827;28;20030;-64
2023/12/06 00:32:39;;;;;;;2.28;0.93;;;2.90;99.90;;;;;;4969685;28;20142;-64
2023/12/06 00:35:07;;;;;;;2.65;1.20;;;2.90;99.90;;;;;;4950426;28;20125;-64
2023/12/06 00:37:33;;;;;;;3.67;1.00;;;2.90;99.90;;;;;;4970210;28;20046;-64
2023/12/06 00:39:59;;;;;;;5.47;1.00;;;2.90;99.90;;;;;;4969001;28;20030;-65
2023/12/06 00:42:25;;;;;;;2.45;0.88;;;2.80;99.90;;;;;;4969056;28;20022;-64
2023/12/06 00:44:50;;;;;;;2.13;1.10;;;2.90;99.90;;;;;;4968712;28;20042;-66
2023/12/06 00:47:16;;;;;;;2.13;0.90;;;2.80;99.90;;;;;;4974712;28;20038;-65
2023/12/06 00:49:41;;;;;;;2.17;0.90;;;2.80;99.90;;;;;;4969789;28;20030;-64
2023/12/06 00:52:08;;;;;;;3.95;1.08;;;2.90;99.90;;;;;;4968593;28;20039;-65
2023/12/06 00:54:33;;;;;;;2.05;1.05;;;2.90;99.90;;;;;;4969682;28;20053;-64
2023/12/06 00:56:59;;;;;;;2.20;0.95;;;2.90;99.90;;;;;;4968826;28;20034;-64
2023/12/06 00:59:25;;;;;;;3.40;1.10;;;3.00;99.90;;;;;;4969565;28;20037;-64
2023/12/06 01:01:50;;;;;;;2.15;1.08;;;3.00;99.90;;;;;;4969081;28;20142;-66
2023/12/06 01:04:16;;;;;;;3.17;1.42;;;3.00;99.90;;;;;;4969160;28;20397;-64
2023/12/06 01:06:41;;;;;;;4.00;1.20;;;3.00;99.90;;;;;;4968222;28;20066;-65
2023/12/06 01:09:08;;;;;;;2.20;1.00;;;3.00;99.90;;;;;;4968726;28;20117;-65
2023/12/06 01:11:33;;;;;;;2.10;1.08;;;3.00;99.90;;;;;;4969202;28;20031;-64
2023/12/06 01:13:59;;;;;;;2.58;1.33;;;2.90;99.90;;;;;;4968123;28;20038;-64
2023/12/06 01:16:25;;;;;;;1.67;0.93;;;3.00;99.90;;;;;;4969484;28;20110;-64
2023/12/06 01:18:50;;;;;;;2.22;1.10;;;2.90;99.90;;;;;;4968994;28;20472;-67
2023/12/06 01:21:16;;;;;;;3.13;1.10;;;2.90;99.90;;;;;;4970070;28;20027;-64
2023/12/06 01:23:42;;;;;;;2.10;1.08;;;2.90;99.90;;;;;;4972252;28;20464;-65
2023/12/06 01:26:07;;;;;;;1.90;1.10;;;2.90;99.90;;;;;;4968601;28;20082;-64
2023/12/06 01:28:33;;;;;;;1.92;1.08;;;2.90;99.90;;;;;;4968943;28;20033;-64
2023/12/06 01:30:58;;;;;;;2.15;1.08;;;2.90;99.90;;;;;;4968672;28;20049;-65
2023/12/06 01:33:24;;;;;;;3.17;1.25;;;2.90;99.90;;;;;;4951958;28;20071;-65
2023/12/06 01:35:50;;;;;;;2.60;0.80;;;2.90;99.90;;;;;;4969201;28;20042;-64
2023/12/06 01:38:15;;;;;;;1.27;0.77;;;2.90;99.90;;;;;;4968187;28;20573;-65
2023/12/06 01:40:41;;;;;;;3.15;1.00;;;2.90;99.90;;;;;;4969089;28;20050;-64
2023/12/06 01:43:09;;;;;;;1.27;0.70;;;2.90;99.90;;;;;;4968726;28;20038;-64
2023/12/06 01:45:35;;;;;;;1.55;0.70;;;2.90;99.90;;;;;;4969117;28;20119;-65
2023/12/06 01:48:02;;;;;;;1.10;0.70;;;2.90;99.90;;;;;;4970828;28;20118;-64
2023/12/06 01:50:28;;;;;;;2.70;0.70;;;2.90;99.90;;;;;;4972623;28;20034;-65
2023/12/06 01:52:57;;;;;;;2.75;0.80;;;2.90;99.90;;;;;;4972456;28;20035;-67
2023/12/06 01:55:23;;;;;;;1.67;0.70;;;2.90;99.90;;;;;;4972966;28;20031;-65
2023/12/06 01:57:50;;;;;;;2.08;0.90;;;2.80;99.90;;;;;;4972282;28;20403;-64
2023/12/06 02:00:16;;;;;;;1.27;0.80;;;2.80;99.90;;;;;;4971729;28;20614;-65
2023/12/06 02:02:42;;;;;;;1.85;0.60;;;2.80;99.90;;;;;;4972377;28;20097;-64
2023/12/06 02:05:09;;;;;;;2.20;0.70;;;2.80;99.90;;;;;;4971988;28;20503;-64
2023/12/06 02:07:36;;;;;;;1.38;0.80;;;2.80;99.90;;;;;;4972431;28;20045;-65
2023/12/06 02:10:02;;;;;;;1.27;0.80;;;2.80;99.90;;;;;;4971771;28;20373;-64
2023/12/06 02:12:28;;;;;;;1.67;0.80;;;2.80;99.90;;;;;;4971716;28;20062;-65
2023/12/06 02:14:57;;;;;;;1.70;0.77;;;2.90;99.90;;;;;;4971871;28;20522;-66
2023/12/06 02:17:23;;;;;;;2.25;1.05;;;2.90;99.90;;;;;;4972475;28;20057;-64
2023/12/06 02:19:49;;;;;;;2.85;1.00;;;2.80;99.90;;;;;;4972389;28;20476;-65
2023/12/06 02:22:15;;;;;;;2.17;1.05;;;2.90;99.90;;;;;;4971514;28;20023;-64
2023/12/06 02:24:42;;;;;;;2.72;1.10;;;2.90;99.90;;;;;;4972303;28;20061;-65
2023/12/06 02:27:07;;;;;;;1.38;0.80;;;2.90;99.90;;;;;;4971192;28;20035;-65
2023/12/06 02:29:33;;;;;;;2.25;1.00;;;2.80;99.90;;;;;;4971210;28;20059;-64
2023/12/06 02:31:58;;;;;;;2.83;0.90;;;2.80;99.90;;;;;;4971237;28;20360;-66
2023/12/06 02:34:26;;;;;;;2.53;1.08;;;2.80;99.90;;;;;;4954762;28;20035;-65
2023/12/06 02:36:56;;;;;;;1.88;1.00;;;2.70;99.90;;;;;;4971982;28;20027;-64
2023/12/06 02:39:21;;;;;;;1.17;0.73;;;2.80;99.90;;;;;;4958935;28;20472;-63
2023/12/06 02:41:47;;;;;;;2.10;1.10;;;2.70;99.90;;;;;;4972051;28;20266;-64
2023/12/06 02:44:13;;;;;;;1.75;0.95;;;2.80;99.90;;;;;;4970919;28;20073;-65
2023/12/06 02:46:39;;;;;;;2.10;0.98;;;2.70;99.90;;;;;;4972459;28;20034;-64
2023/12/06 02:49:05;;;;;;;3.42;1.20;;;2.70;99.90;;;;;;4971246;28;20117;-64
2023/12/06 02:51:30;;;;;;;1.90;1.08;;;2.70;99.90;;;;;;4971761;28;20187;-65
2023/12/06 02:53:56;;;;;;;2.10;1.10;;;2.60;99.90;;;;;;4971613;28;20038;-67
2023/12/06 02:56:22;;;;;;;2.72;1.30;;;2.70;99.90;;;;;;4971727;28;20031;-64
2023/12/06 02:58:48;;;;;;;1.70;0.80;;;2.60;99.90;;;;;;4971210;28;20026;-64
2023/12/06 03:01:13;;;;;;;2.10;0.90;;;2.60;99.90;;;;;;4970930;28;20114;-64
2023/12/06 03:03:39;;;;;;;4.38;0.90;;;2.60;99.90;;;;;;4971527;28;20042;-65
2023/12/06 03:06:04;;;;;;;1.70;0.80;;;2.60;99.90;;;;;;4971071;28;20034;-64
2023/12/06 03:08:30;;;;;;;1.85;0.90;;;2.60;99.90;;;;;;4971319;28;20880;-64
2023/12/06 03:10:56;;;;;;;1.50;0.63;;;2.70;99.90;;;;;;4971388;28;20035;-65
2023/12/06 03:13:21;;;;;;;1.92;0.80;;;2.70;99.90;;;;;;4970158;28;20454;-64
2023/12/06 03:15:47;;;;;;;2.28;1.08;;;2.70;99.90;;;;;;4971366;28;20135;-65
2023/12/06 03:18:12;;;;;;;1.48;0.73;;;2.60;99.90;;;;;;4970332;28;20027;-66
2023/12/06 03:20:38;;;;;;;1.95;0.77;;;2.70;99.90;;;;;;4970810;28;20062;-64
2023/12/06 03:23:04;;;;;;;2.97;0.90;;;2.70;99.90;;;;;;4970575;28;20057;-65
2023/12/06 03:25:29;;;;;;;2.80;1.15;;;2.70;99.90;;;;;;4971158;28;20483;-64
2023/12/06 03:27:56;;;;;;;2.67;0.95;;;2.70;99.90;;;;;;4970451;28;20038;-64
2023/12/06 03:30:23;;;;;;;2.58;1.10;;;2.70;99.90;;;;;;4969816;28;20867;-64
2023/12/06 03:32:49;;;;;;;1.92;0.90;;;2.70;99.90;;;;;;4971123;28;20042;-64
2023/12/06 03:35:15;;;;;;;1.23;0.65;;;2.70;99.90;;;;;;4970263;28;20034;-65
2023/12/06 03:37:40;;;;;;;1.02;0.63;;;2.80;99.90;;;;;;4971191;28;20392;-62
2023/12/06 03:40:06;;;;;;;1.60;0.82;;;2.70;99.90;;;;;;4986090;28;20026;-63
2023/12/06 03:42:32;;;;;;;1.10;0.60;;;2.80;99.90;;;;;;4990104;28;20169;-62
2023/12/06 03:44:58;;;;;;;1.77;0.80;;;2.80;99.90;;;;;;4970935;28;20114;-62
2023/12/06 03:47:24;;;;;;;1.63;0.60;;;2.80;99.90;;;;;;4970041;28;20039;-63
2023/12/06 03:49:49;;;;;;;1.80;0.60;;;2.80;99.90;;;;;;4970989;28;20037;-63
2023/12/06 03:52:15;;;;;;;1.70;0.73;;;2.80;99.90;;;;;;4969895;28;20388;-63
2023/12/06 03:54:40;;;;;;;2.28;0.60;;;2.80;99.90;;;;;;4970876;28;20078;-62
2023/12/06 03:57:06;;;;;;;2.05;0.60;;;2.80;99.90;;;;;;4969854;28;20031;-62
2023/12/06 03:59:31;;;;;;;2.13;0.60;;;2.80;99.90;;;;;;4970468;28;20698;-62
2023/12/06 04:01:57;;;;;;;1.58;0.57;;;2.80;99.90;;;;;;4975384;28;20464;-63
2023/12/06 04:04:23;;;;;;;1.75;0.80;;;2.80;99.90;;;;;;4969473;28;20035;-62
2023/12/06 04:06:48;;;;;;;2.25;0.55;;;2.90;99.90;;;;;;4970420;28;20046;-63
2023/12/06 04:09:14;;;;;;;2.25;0.70;;;2.80;99.90;;;;;;4966724;28;20109;-63
2023/12/06 04:11:40;;;;;;;1.27;0.68;;;2.90;99.90;;;;;;4979565;28;20121;-62
2023/12/06 04:14:07;;;;;;;3.65;0.75;;;2.90;99.90;;;;;;4986920;28;20449;-63
2023/12/06 04:16:33;;;;;;;2.95;1.00;;;2.90;99.90;;;;;;4978724;28;20030;-62
2023/12/06 04:18:58;;;;;;;3.33;0.70;;;2.90;99.90;;;;;;4976410;28;20360;-63
2023/12/06 04:21:25;;;;;;;2.50;1.05;;;3.00;99.90;;;;;;4973595;28;20138;-62
2023/12/06 04:23:50;;;;;;;1.52;0.82;;;3.00;99.90;;;;;;4967551;28;20110;-62
2023/12/06 04:26:16;;;;;;;1.88;0.82;;;3.00;99.90;;;;;;4970688;28;20059;-64
2023/12/06 04:28:42;;;;;;;2.55;1.10;;;2.90;99.90;;;;;;4975314;28;20110;-63
2023/12/06 04:31:07;;;;;;;1.90;1.00;;;3.00;99.90;;;;;;4971994;28;20034;-63
2023/12/06 04:33:33;;;;;;;2.25;1.20;;;3.00;99.90;;;;;;4981399;28;20038;-62
2023/12/06 04:35:58;;;;;;;4.35;1.20;;;2.90;99.90;;;;;;4983028;28;20104;-62
2023/12/06 04:38:24;;;;;;;2.38;1.27;;;2.90;99.90;;;;;;4983238;28;20293;-63
2023/12/06 04:40:50;;;;;;;3.05;1.45;;;2.90;99.90;;;;;;4969498;28;20038;-63
2023/12/06 04:43:18;;;;;;;3.13;1.50;;;2.90;99.90;;;;;;4976216;28;20122;-63
2023/12/06 04:45:44;;;;;;;2.08;1.00;;;2.90;99.90;;;;;;4983295;28;20117;-62
2023/12/06 04:48:11;;;;;;;2.28;1.10;;;2.90;99.90;;;;;;4980681;28;20558;-62
2023/12/06 04:50:36;;;;;;;3.38;1.23;;;2.90;99.90;;;;;;4974027;28;20071;-62
2023/12/06 04:53:02;;;;;;;4.05;1.35;;;2.90;99.90;;;;;;4969918;28;20054;-62
2023/12/06 04:55:28;;;;;;;1.85;1.10;;;2.90;99.90;;;;;;4969428;28;20041;-62
2023/12/06 04:57:53;;;;;;;3.25;1.15;;;2.90;99.90;;;;;;4969297;28;20471;-61
2023/12/06 05:00:21;;;;;;;2.20;1.10;;;2.90;99.90;;;;;;4957828;28;20865;-62
2023/12/06 05:02:47;;;;;;;2.15;1.08;;;2.90;99.90;;;;;;4970332;28;20030;-62
2023/12/06 05:05:12;;;;;;;2.38;1.15;;;2.90;99.90;;;;;;4969232;28;20510;-62
2023/12/06 05:07:38;;;;;;;1.95;1.10;;;2.90;99.90;;;;;;4968921;28;20035;-61
2023/12/06 05:10:04;;;;;;;2.67;1.13;;;2.90;99.90;;;;;;4968478;28;20030;-64
2023/12/06 05:12:30;;;;;;;1.70;0.75;;;2.90;99.90;;;;;;4978251;28;20052;-61
2023/12/06 05:14:55;;;;;;;1.63;0.80;;;2.90;99.90;;;;;;4969352;28;20484;-61
2023/12/06 05:17:21;;;;;;;2.42;0.90;;;2.90;99.90;;;;;;4971659;28;20042;-61
2023/12/06 05:19:47;;;;;;;2.00;1.00;;;2.90;99.90;;;;;;4969118;28;20058;-65
2023/12/06 05:22:12;;;;;;;1.67;0.88;;;2.90;99.90;;;;;;4969965;28;20086;-61
2023/12/06 05:24:38;;;;;;;1.98;0.90;;;2.90;99.90;;;;;;4972327;28;20058;-61
2023/12/06 05:27:04;;;;;;;2.08;1.00;;;2.90;99.90;;;;;;4957605;28;20110;-63
2023/12/06 05:29:31;;;;;;;3.58;1.00;;;2.90;99.90;;;;;;4971452;28;20508;-63
2023/12/06 05:31:57;;;;;;;1.55;0.82;;;2.90;99.90;;;;;;4952739;28;20035;-64
2023/12/06 05:34:23;;;;;;;2.20;1.00;;;3.00;99.90;;;;;;4952712;28;20046;-63
2023/12/06 05:36:49;;;;;;;2.33;1.13;;;3.00;99.90;;;;;;4952603;28;20039;-63
2023/12/06 05:39:14;;;;;;;2.25;1.08;;;3.00;99.90;;;;;;4951915;29;20362;-65
2023/12/06 05:41:40;;;;;;;2.45;0.70;;;3.00;99.90;;;;;;4952964;29;20034;-63
2023/12/06 05:44:06;;;;;;;1.85;1.05;;;2.90;99.90;;;;;;4952843;28;20496;-66
2023/12/06 05:46:31;;;;;;;1.77;1.20;;;2.90;99.90;;;;;;4951804;28;20043;-65
2023/12/06 05:48:57;;;;;;;2.13;0.90;;;3.00;99.90;;;;;;4952447;29;20436;-64
2023/12/06 05:51:23;;;;;;;2.85;0.95;;;3.00;99.90;;;;;;4952179;28;20033;-64
2023/12/06 05:53:49;;;;;;;2.45;1.27;;;3.00;99.90;;;;;;4953094;28;20042;-65
2023/12/06 05:56:14;;;;;;;3.45;1.20;;;3.00;99.90;;;;;;4958669;28;20167;-64
2023/12/06 05:58:41;;;;;;;2.47;1.20;;;3.00;99.90;;;;;;4951593;29;20865;-63
2023/12/06 06:01:07;;;;;;;3.88;1.25;;;3.00;99.90;;;;;;4951950;29;20103;-65
2023/12/06 06:03:33;;;;;;;4.13;1.30;;;3.00;99.90;;;;;;4950950;28;20020;-64
2023/12/06 06:06:12;;;;;;;3.28;1.35;;;3.00;99.90;;;;;;4961680;28;20510;-62
2023/12/06 06:08:38;;;;;;;4.38;1.30;;;3.00;99.90;;;;;;4947235;28;20039;-62
2023/12/06 06:11:04;;;;;;;4.10;1.17;;;3.10;99.90;;;;;;4955675;28;20067;-63
2023/12/06 06:13:30;;;;;;;2.70;1.20;;;3.10;99.90;;;;;;4945922;28;20728;-61
2023/12/06 06:15:57;;;;;;;2.35;1.15;;;3.10;99.90;;;;;;4960449;28;20035;-64
2023/12/06 06:18:23;;;;;;;3.05;1.13;;;3.10;99.90;;;;;;4953426;28;20035;-62
2023/12/06 06:20:48;;;;;;;3.97;1.38;;;3.10;99.90;;;;;;4953037;28;20094;-61
2023/12/06 06:23:14;;;;;;;3.65;1.30;;;3.20;99.90;;;;;;4958773;28;20042;-62
2023/12/06 06:25:39;;;;;;;2.33;1.17;;;3.10;99.90;;;;;;4931099;28;1108195;-61
2023/12/06 06:28:05;;;;;;;4.70;1.58;;;3.10;99.90;;;;;;4969533;28;20057;-62
2023/12/06 06:30:31;;;;;;;3.20;1.65;;;3.10;99.90;;;;;;4970693;28;20133;-62
2023/12/06 06:32:57;;;;;;;1.77;0.95;;;3.10;99.90;;;;;;4964098;28;20042;-62
2023/12/06 06:35:22;;;;;;;5.20;1.45;;;3.10;99.90;;;;;;4952161;29;20039;-63
2023/12/06 06:37:48;;;;;;;3.28;1.67;;;3.10;99.90;;;;;;4965642;28;20392;-61
2023/12/06 06:40:17;;;;;;;2.97;1.63;;;3.10;99.90;;;;;;4967833;28;20336;-63
2023/12/06 06:42:42;;;;;;;3.00;1.30;;;3.10;99.90;;;;;;4966450;28;20035;-62
2023/12/06 06:45:09;;;;;;;5.57;1.70;;;3.10;99.90;;;;;;4952796;29;20066;-64
2023/12/06 06:47:37;;;;;;;5.72;2.22;;;3.10;99.90;;;;;;4966457;28;20146;-62
2023/12/06 06:50:04;;;;;;;3.90;1.73;;;3.10;99.90;;;;;;4970419;28;20057;-62
2023/12/06 06:52:32;;;;;;;4.72;2.15;;;3.00;99.90;;;;;;4949881;28;20476;-62
2023/12/06 06:54:57;;;;;;;3.95;1.90;;;3.00;99.90;;;;;;4971180;28;20070;-62
2023/12/06 06:57:23;;;;;;;5.35;2.20;;;3.00;99.90;;;;;;4968808;28;20077;-62
2023/12/06 06:59:49;;;;;;;4.40;2.05;;;3.00;99.90;;;;;;4972388;28;20027;-64
2023/12/06 07:02:14;;;;;;;6.03;1.92;;;3.00;99.90;;;;;;4966113;28;20027;-64
2023/12/06 07:04:41;;;;;;;4.10;2.40;;;3.00;99.90;;;;;;4964651;28;20030;-63
2023/12/06 07:07:06;;;;;;;5.28;2.22;;;3.00;99.90;;;;;;4963326;28;20085;-64
2023/12/06 07:09:32;;;;;;;5.05;2.42;;;3.00;99.90;;;;;;4961421;28;20594;-63
2023/12/06 07:11:58;;;;;;;3.90;2.05;;;3.00;99.90;;;;;;4960423;28;20039;-62
2023/12/06 07:14:23;;;;;;;6.10;2.40;;;3.00;99.90;;;;;;4961881;28;20038;-62
2023/12/06 07:16:49;;;;;;;4.25;1.80;;;3.00;99.90;;;;;;4964061;28;20487;-61
2023/12/06 07:19:14;;;;;;;4.53;1.98;;;3.00;99.90;;;;;;4961819;28;20464;-64
2023/12/06 07:21:40;;;;;;;5.68;2.40;;;3.10;99.90;;;;;;4960825;28;20045;-63
2023/12/06 07:24:06;;;;;;;2.90;1.73;;;3.10;99.90;;;;;;4962801;28;20461;-63
2023/12/06 07:26:32;;;;;;;3.80;1.80;;;3.10;99.90;;;;;;4962529;28;20047;-63
2023/12/06 07:28:58;;;;;;;5.30;1.90;;;3.10;99.90;;;;;;4963043;28;20050;-60
2023/12/06 07:31:23;;;;;;;3.50;1.83;;;3.10;99.90;;;;;;4959629;28;20030;-61
2023/12/06 07:33:50;;;;;;;6.70;2.20;;;3.20;99.90;;;;;;4967792;28;20069;-62
2023/12/06 07:36:16;;;;;;;4.43;1.90;;;3.10;99.90;;;;;;4974833;28;20825;-63
2023/12/06 07:38:42;;;;;;;4.70;2.28;;;3.10;99.90;;;;;;4971810;28;20038;-63
2023/12/06 07:41:08;;;;;;;3.88;1.80;;;3.10;99.90;;;;;;4969468;28;20030;-62
2023/12/06 07:43:33;;;;;;;5.95;2.00;;;3.10;99.90;;;;;;4972245;28;20027;-62
2023/12/06 07:45:59;;;;;;;6.57;1.92;;;3.10;99.90;;;;;;4976672;28;20460;-62
2023/12/06 07:48:25;;;;;;;6.05;2.00;;;3.10;99.90;;;;;;4970717;28;20508;-63
2023/12/06 07:50:51;;;;;;;4.15;2.22;;;3.10;99.90;;;;;;4970450;28;20042;-64
2023/12/06 07:53:18;;;;;;;4.55;2.00;;;3.10;99.90;;;;;;4973230;28;20054;-64
2023/12/06 07:55:45;;;;;;;7.95;1.70;;;3.10;99.90;;;;;;4966835;28;20053;-64
2023/12/06 07:58:10;;;;;;;4.30;2.00;;;3.20;99.90;;;;;;4970094;28;20555;-62
2023/12/06 08:00:36;;;;;;;4.43;2.05;;;3.20;99.90;;;;;;4969243;28;20121;-62
2023/12/06 08:03:03;;;;;;;3.67;1.73;;;3.20;99.90;;;;;;4968386;28;20058;-62
2023/12/06 08:05:28;;;;;;;2.55;1.70;;;3.20;99.90;;;;;;4969896;28;20116;-62
2023/12/06 08:07:54;;;;;;;3.80;1.60;;;3.20;99.90;;;;;;4969110;28;20492;-62
2023/12/06 08:10:22;;;;;;;3.42;1.42;;;3.30;99.90;;;;;;4951771;28;20080;-62
2023/12/06 08:12:49;;;;;;;3.55;1.70;;;3.30;99.90;;;;;;4969465;28;20050;-62
2023/12/06 08:15:15;;;;;;;4.72;1.42;;;3.30;99.90;;;;;;4969577;28;20480;-65
2023/12/06 08:17:41;;;;;;;3.25;1.45;;;3.30;99.90;;;;;;4964623;28;20050;-64
2023/12/06 08:20:10;;;;;;;2.70;1.38;;;3.30;99.90;;;;;;4969175;28;20370;-62
2023/12/06 08:22:36;;;;;;;4.97;1.30;;;3.40;99.90;;;;;;4968526;28;20233;-63
2023/12/06 08:25:02;;;;;;;3.85;1.42;;;3.40;99.90;;;;;;4968648;28;20570;-63
2023/12/06 08:27:29;;;;;;;3.03;1.25;;;3.40;99.90;;;;;;4968140;28;20035;-62
2023/12/06 08:29:58;;;;;;;5.47;1.75;;;3.40;99.90;;;;;;4969271;28;20114;-62
2023/12/06 08:32:24;;;;;;;4.05;2.00;;;3.40;99.90;;;;;;4962691;28;20026;-61
2023/12/06 08:34:50;;;;;;;4.20;1.42;;;3.40;99.90;;;;;;4969467;28;20400;-62
2023/12/06 08:37:16;;;;;;;4.57;1.73;;;3.40;99.90;;;;;;4950800;28;20037;-68
2023/12/06 08:39:43;;;;;;;3.53;1.67;;;3.40;99.90;;;;;;4969251;28;20041;-62
2023/12/06 08:42:09;;;;;;;3.65;1.77;;;3.30;99.90;;;;;;4968620;28;20042;-62
2023/12/06 08:44:35;;;;;;;3.08;1.77;;;3.30;99.90;;;;;;4949118;28;20038;-64
2023/12/06 08:47:02;;;;;;;6.55;2.17;;;3.40;99.90;;;;;;4968904;28;20613;-66
2023/12/06 08:49:28;;;;;;;5.72;1.90;;;3.40;99.90;;;;;;4968801;28;20066;-62
2023/12/06 08:51:53;;;;;;;4.55;1.90;;;3.30;99.90;;;;;;4949291;28;20065;-63
2023/12/06 08:54:19;;;;;;;3.72;1.83;;;3.40;99.90;;;;;;4967308;28;20031;-64
2023/12/06 08:56:44;;;;;;;6.13;1.77;;;3.30;99.90;;;;;;4968525;28;20039;-63
2023/12/06 08:59:10;;;;;;;5.25;2.58;;;3.30;99.90;;;;;;4968942;28;20035;-62
2023/12/06 09:01:36;;;;;;;7.00;2.20;;;3.30;99.90;;;;;;4967974;28;20015;-63
2023/12/06 09:04:01;;;;;;;3.80;1.60;;;3.30;99.90;;;;;;4970918;28;20129;-63
2023/12/06 09:06:27;;;;;;;4.53;2.13;;;3.30;99.90;;;;;;4977621;28;20038;-63
2023/12/06 09:08:52;;;;;;;4.65;2.13;;;3.30;99.90;;;;;;4969442;28;20031;-63
2023/12/06 09:11:19;;;;;;;4.85;2.40;;;3.30;99.90;;;;;;4968554;28;20041;-66
2023/12/06 09:13:45;;;;;;;5.03;2.08;;;3.30;99.90;;;;;;4968781;28;20039;-63
2023/12/06 09:16:11;;;;;;;5.60;2.47;;;3.30;99.90;;;;;;4954185;28;20392;-65
2023/12/06 09:18:36;;;;;;;7.03;2.72;;;3.30;99.90;;;;;;4968772;28;20034;-64
2023/12/06 09:21:04;;;;;;;6.28;3.10;;;3.30;99.90;;;;;;4969832;28;20035;-65
2023/12/06 09:23:30;;;;;;;6.03;2.67;;;3.40;99.90;;;;;;4968768;28;20031;-63
2023/12/06 09:25:56;;;;;;;7.40;3.70;;;3.30;99.90;;;;;;4957067;28;20108;-65
2023/12/06 09:28:22;;;;;;;9.05;3.10;;;3.30;99.90;;;;;;4968761;28;20073;-64
2023/12/06 09:30:47;;;;;;;9.02;4.15;;;3.30;99.90;;;;;;4969330;28;20118;-64
2023/12/06 09:33:13;;;;;;;8.15;4.00;;;3.30;99.90;;;;;;4969370;28;20475;-64
2023/12/06 09:35:40;;;;;;;15.07;5.68;;;3.30;99.90;;;;;;4967907;28;20589;-66
2023/12/06 09:38:05;;;;;;;18.15;6.78;;;3.30;99.90;;;;;;4959414;28;20041;-63
2023/12/06 09:40:31;;;;;;;18.80;8.52;;;3.30;99.90;;;;;;4968273;28;20030;-63
2023/12/06 09:43:01;;;;;;;21.42;8.95;;;3.30;99.90;;;;;;4969216;28;20031;-62
2023/12/06 09:45:27;;;;;;;23.10;9.90;;;3.30;99.90;;;;;;4968882;28;20054;-66
2023/12/06 09:47:55;;;;;;;25.52;10.27;;;3.30;99.90;;;;;;4969133;28;20043;-65
2023/12/06 09:50:21;;;;;;;30.23;11.88;;;3.20;99.90;;;;;;4968745;28;20062;-67
2023/12/06 09:52:54;;;;;;;29.38;12.27;;;3.20;99.90;;;;;;4969055;28;20047;-63
2023/12/06 09:55:24;;;;;;;28.95;11.50;;;3.20;99.90;;;;;;4968805;28;20038;-68
2023/12/06 09:57:56;;;;;;;29.65;11.90;;;3.20;99.90;;;;;;4968903;28;20077;-64
2023/12/06 10:00:23;;;;;;;31.45;12.77;;;3.20;99.90;;;;;;4968766;28;20034;-68
2023/12/06 10:02:53;;;;;;;31.30;13.02;;;3.10;99.90;;;;;;4969132;28;20043;-64
2023/12/06 10:05:19;;;;;;;29.67;12.32;;;3.20;99.90;;;;;;4968833;28;20030;-68
2023/12/06 10:07:46;;;;;;;31.15;12.38;;;3.10;99.90;;;;;;4968912;28;20038;-62
2023/12/06 10:10:21;;;;;;;30.30;12.27;;;3.10;99.90;;;;;;4972962;28;20097;-63
2023/12/06 10:12:52;;;;;;;24.88;10.85;;;3.10;99.90;;;;;;4972081;28;20090;-63
2023/12/06 10:15:19;;;;;;;29.65;11.65;;;3.10;99.90;;;;;;4972409;28;20121;-64
2023/12/06 10:17:48;;;;;;;35.15;11.95;;;3.10;99.90;;;;;;4986874;28;20039;-63
2023/12/06 10:20:14;;;;;;;28.57;11.83;;;3.10;99.90;;;;;;4972708;28;20031;-64
2023/12/06 10:22:41;;;;;;;29.58;11.38;;;3.00;99.90;;;;;;4972026;28;20027;-64
2023/12/06 10:25:10;;;;;;;30.77;11.55;;;3.00;99.90;;;;;;4977007;28;20063;-62
2023/12/06 10:27:36;;;;;;;29.23;11.75;;;3.00;99.90;;;;;;4973384;28;20114;-63
2023/12/06 10:30:03;;;;;;;32.85;13.60;;;3.00;99.90;;;;;;4944600;28;20109;-61
2023/12/06 10:32:30;;;;;;;31.00;13.27;;;2.90;99.90;;;;;;4979611;28;20034;-64
2023/12/06 10:35:02;;;;;;;34.35;14.10;;;2.90;99.90;;;;;;4954987;28;20093;-64
2023/12/06 10:37:28;;;;;;;28.02;11.80;;;2.90;99.90;;;;;;4983878;28;20066;-63
2023/12/06 10:40:09;;;;;;;29.02;11.85;;;2.90;99.90;;;;;;4985161;28;20118;-63
2023/12/06 10:42:36;;;;;;;29.92;12.40;;;2.90;99.90;;;;;;4970952;28;20026;-64
2023/12/06 10:45:03;;;;;;;29.95;12.20;;;2.80;99.90;;;;;;4972444;28;20067;-63
2023/12/06 10:47:33;;;;;;;29.20;12.18;;;2.80;99.90;;;;;;4953953;28;20061;-62
2023/12/06 10:50:00;;;;;;;29.05;12.07;;;2.80;99.90;;;;;;4972202;28;20037;-65
2023/12/06 10:52:28;;;;;;;26.98;12.02;;;2.80;99.90;;;;;;4975737;28;20034;-66
2023/12/06 10:54:55;;;;;;;28.90;11.65;;;2.80;99.90;;;;;;4971611;28;20044;-64
2023/12/06 10:57:21;;;;;;;26.70;11.38;;;2.70;99.90;;;;;;4971787;28;20671;-63
2023/12/06 10:59:47;;;;;;;26.88;11.43;;;2.70;99.90;;;;;;4947178;28;20045;-64
2023/12/06 11:02:13;;;;;;;31.15;12.73;;;2.70;99.90;;;;;;4970608;28;20113;-64
2023/12/06 11:04:47;;;;;;;33.45;13.82;;;2.60;99.90;;;;;;4966388;28;20414;-64
2023/12/06 11:07:21;;;;;;;33.60;13.52;;;2.70;99.90;;;;;;4971140;28;20039;-68
2023/12/06 11:10:09;;;;;;;39.40;15.15;;;2.70;99.90;;;;;;4969736;28;20062;-63
2023/12/06 11:12:46;;;;;;;32.83;12.90;;;2.70;99.90;;;;;;4970441;28;20026;-63
2023/12/06 11:15:45;;;;;;;42.35;16.90;;;2.70;99.90;;;;;;4970946;28;20518;-66
2023/12/06 11:18:14;;;;;;;40.83;16.63;;;2.70;99.90;;;;;;4954134;28;20041;-64
2023/12/06 11:20:41;;;;;;;35.38;14.05;;;2.70;99.90;;;;;;4969023;28;20027;-63
2023/12/06 11:23:09;;;;;;;39.13;16.33;;;2.80;99.90;;;;;;4970614;28;20121;-64
2023/12/06 11:25:43;;;;;;;41.53;16.13;;;2.70;99.90;;;;;;4958271;28;20051;-64
2023/12/06 11:28:13;;;;;;;39.05;15.45;;;2.80;99.90;;;;;;4948873;28;20118;-64
2023/12/06 11:30:49;;;;;;;48.25;17.20;;;2.80;99.90;;;;;;4951863;28;20126;-64
2023/12/06 11:33:15;;;;;;;37.70;14.75;;;2.80;99.90;;;;;;4950818;28;20035;-63
2023/12/06 11:35:45;;;;;;;35.78;15.77;;;2.80;99.90;;;;;;4950427;28;20740;-63
2023/12/06 11:38:11;;;;;;;42.08;16.67;;;2.80;99.90;;;;;;4950651;29;20728;-63
2023/12/06 11:40:37;;;;;;;42.15;15.32;;;2.80;99.90;;;;;;4950096;28;20039;-63
2023/12/06 11:43:02;;;;;;;37.58;15.15;;;2.80;99.90;;;;;;4940823;29;20045;-63
2023/12/06 11:45:29;;;;;;;36.75;15.57;;;2.80;99.90;;;;;;4932839;28;20043;-65
2023/12/06 11:47:58;;;;;;;37.38;15.90;;;2.80;99.90;;;;;;4951286;29;20534;-63
2023/12/06 11:50:24;;;;;;;31.65;13.07;;;2.80;99.90;;;;;;4950617;28;20518;-64
2023/12/06 11:52:53;;;;;;;32.28;13.98;;;2.80;99.90;;;;;;4950622;29;20031;-64
2023/12/06 11:55:21;;;;;;;36.28;14.93;;;2.80;99.90;;;;;;4952672;28;20031;-63
2023/12/06 11:58:00;;;;;;;29.02;11.82;;;2.80;99.90;;;;;;4957317;28;20615;-63
2023/12/06 12:00:30;;;;;;;32.40;12.57;;;2.80;99.90;;;;;;4951842;28;20543;-66
2023/12/06 12:03:02;;;;;;;33.55;14.30;;;2.80;99.90;;;;;;4937862;29;20035;-62
2023/12/06 12:05:27;;;;;;;29.15;12.50;;;2.80;99.90;;;;;;4955176;28;20391;-66
2023/12/06 12:07:53;;;;;;;27.40;12.88;;;2.80;99.90;;;;;;4969983;28;20030;-63
2023/12/06 12:10:20;;;;;;;34.53;13.98;;;2.80;99.90;;;;;;4951408;28;20384;-64
2023/12/06 12:12:48;;;;;;;34.30;13.50;;;2.80;99.90;;;;;;4949907;28;20086;-63
2023/12/06 12:15:16;;;;;;;31.65;13.60;;;2.80;99.90;;;;;;4951151;29;20035;-65
2023/12/06 12:17:44;;;;;;;36.95;12.70;;;2.80;99.90;;;;;;4950235;29;20439;-65
2023/12/06 12:20:13;;;;;;;29.40;12.80;;;2.80;99.90;;;;;;4950623;28;20038;-64
2023/12/06 12:22:43;;;;;;;36.42;13.45;;;2.80;99.90;;;;;;4950366;29;20399;-62
2023/12/06 12:25:09;;;;;;;29.35;12.85;;;2.80;99.90;;;;;;4941418;28;20522;-64
2023/12/06 12:27:34;;;;;;;29.38;12.73;;;2.70;99.90;;;;;;4969685;28;20042;-64
2023/12/06 12:30:00;;;;;;;32.15;13.23;;;2.70;99.90;;;;;;4970683;28;20046;-64
2023/12/06 12:32:28;;;;;;;34.58;12.85;;;2.70;99.90;;;;;;4952378;28;20031;-62
2023/12/06 12:34:54;;;;;;;28.13;11.77;;;2.70;99.90;;;;;;4964695;28;20092;-62
2023/12/06 12:37:20;;;;;;;28.25;12.05;;;2.70;99.90;;;;;;4970346;28;20464;-61
2023/12/06 12:39:45;;;;;;;30.77;12.73;;;2.70;99.90;;;;;;4969215;28;20031;-61
2023/12/06 12:42:11;;;;;;;29.60;12.30;;;2.70;99.90;;;;;;4979509;28;20038;-64
2023/12/06 12:44:37;;;;;;;25.63;10.85;;;2.70;99.90;;;;;;4972835;28;20391;-63
2023/12/06 12:47:02;;;;;;;26.65;11.55;;;2.70;99.90;;;;;;4968767;28;20518;-64
2023/12/06 12:49:28;;;;;;;25.02;11.10;;;2.60;99.90;;;;;;4969943;28;20115;-64